Time;durP1;ratioP1;P1;durP2;ratioP2;P2;SDS_P1;SDS_P2;PMS_P1;PMS_P2;Temp;Humidity;BMP_temperature;BMP_pressure;BME280_temperature;BME280_humidity;BME280_pressure;Samples;Min_cycle;Max_cycle;Signal;HPM_P1;HPM_P2
2023/05/02 00:02:06;;;;;;;7.33;5.43;;;;;;;10.72;65.26;98861.91;5092828;28;42656;-78
2023/05/02 00:04:33;;;;;;;5.30;4.80;;;;;;;10.69;64.88;98871.81;5074763;28;39825;-78
2023/05/02 00:07:01;;;;;;;5.50;5.00;;;;;;;10.66;64.85;98872.00;5057661;28;41743;-78
2023/05/02 00:09:29;;;;;;;5.97;5.20;;;;;;;10.62;65.00;98866.06;5092648;28;43634;-78
2023/05/02 00:11:56;;;;;;;5.43;4.93;;;;;;;10.54;64.80;98859.53;5074407;28;41142;-78
2023/05/02 00:14:25;;;;;;;6.23;5.40;;;;;;;10.59;64.62;98876.00;5074433;28;41001;-78
2023/05/02 00:16:53;;;;;;;6.10;4.90;;;;;;;10.58;64.37;98874.28;5073840;28;41903;-79
2023/05/02 00:19:21;;;;;;;5.70;5.10;;;;;;;10.57;64.67;98862.84;5074017;28;43801;-79
2023/05/02 00:21:49;;;;;;;5.63;5.13;;;;;;;10.57;64.87;98862.00;5074522;28;43332;-78
2023/05/02 00:24:18;;;;;;;5.83;5.10;;;;;;;10.67;64.65;98871.06;5073730;28;40343;-79
2023/05/02 00:26:45;;;;;;;5.93;5.40;;;;;;;10.73;64.46;98863.59;5074316;28;41200;-79
2023/05/02 00:29:13;;;;;;;4.77;4.37;;;;;;;10.79;64.44;98859.69;5073844;28;43761;-77
2023/05/02 00:31:41;;;;;;;5.17;4.67;;;;;;;10.84;64.17;98868.22;5074216;28;42302;-78
2023/05/02 00:34:10;;;;;;;5.27;4.77;;;;;;;10.88;63.84;98866.22;5056926;28;39105;-78
2023/05/02 00:36:38;;;;;;;4.70;4.30;;;;;;;10.89;64.20;98860.81;5057261;28;40867;-78
2023/05/02 00:39:05;;;;;;;5.73;4.57;;;;;;;10.90;64.56;98859.00;5073743;28;42532;-78
2023/05/02 00:41:33;;;;;;;5.00;4.50;;;;;;;10.88;64.67;98861.75;5092060;28;43058;-77
2023/05/02 00:44:01;;;;;;;5.47;4.90;;;;;;;10.86;64.33;98868.97;5073762;28;41606;-78
2023/05/02 00:46:30;;;;;;;5.13;4.63;;;;;;;10.82;64.40;98859.50;5056844;28;41422;-78
2023/05/02 00:48:57;;;;;;;5.90;5.30;;;;;;;10.68;64.71;98848.94;5056424;28;41341;-78
2023/05/02 00:51:27;;;;;;;6.10;5.57;;;;;;;10.77;64.84;98859.78;5056750;28;41406;-77
2023/05/02 00:53:56;;;;;;;5.20;4.50;;;;;;;10.72;64.98;98853.94;5091820;28;41035;-78
2023/05/02 00:56:24;;;;;;;5.37;4.87;;;;;;;10.78;65.02;98864.13;5073865;28;42774;-78
2023/05/02 00:58:52;;;;;;;6.67;5.60;;;;;;;10.78;65.39;98855.34;5073471;28;42729;-78
2023/05/02 01:01:36;;;;;;;6.00;5.40;;;;;;;10.83;65.77;98858.56;5073788;28;42401;-78
2023/05/02 01:04:14;;;;;;;6.47;5.80;;;;;;;10.87;66.04;98853.94;5072851;28;40948;-78
2023/05/02 01:06:53;;;;;;;6.70;5.77;;;;;;;10.92;66.27;98863.28;5056513;28;41422;-77
2023/05/02 01:09:47;;;;;;;5.57;5.07;;;;;;;10.96;65.98;98866.59;5073124;28;43804;-78
2023/05/02 01:12:27;;;;;;;6.50;5.50;;;;;;;10.99;65.80;98872.53;5056775;28;42014;-78
2023/05/02 01:14:57;;;;;;;6.27;5.50;;;;;;;11.00;66.46;98860.97;5073403;28;39237;-78
2023/05/02 01:17:28;;;;;;;6.20;5.60;;;;;;;11.00;66.18;98870.75;5073165;28;42479;-78
2023/05/02 01:19:59;;;;;;;5.23;4.73;;;;;;;11.01;66.30;98867.13;5056798;28;41639;-78
2023/05/02 01:22:29;;;;;;;5.87;5.33;;;;;;;10.99;66.39;98874.34;5070464;28;42338;-78
2023/05/02 01:25:04;;;;;;;6.77;6.10;;;;;;;10.96;66.62;98875.38;5056441;28;40024;-78
2023/05/02 01:27:40;;;;;;;7.10;6.30;;;;;;;10.79;66.85;98849.09;5056118;28;40719;-78
2023/05/02 01:30:11;;;;;;;6.10;5.50;;;;;;;10.93;68.24;98875.56;5056786;28;41762;-78
2023/05/02 01:32:41;;;;;;;7.07;5.37;;;;;;;10.80;67.38;98864.91;5056032;28;41238;-78
2023/05/02 01:35:10;;;;;;;6.17;5.50;;;;;;;10.86;67.31;98874.28;5073005;28;39811;-78
2023/05/02 01:37:41;;;;;;;5.30;4.80;;;;;;;10.82;67.28;98875.41;5056161;28;41397;-78
2023/05/02 01:40:10;;;;;;;5.17;4.70;;;;;;;10.68;67.45;98860.38;5056121;28;41958;-78
2023/05/02 01:42:40;;;;;;;4.93;4.47;;;;;;;10.74;67.27;98878.56;5055254;28;42468;-77
2023/05/02 01:45:12;;;;;;;8.23;5.83;;;;;;;10.72;68.54;98876.94;5056472;28;39084;-77
2023/05/02 01:47:43;;;;;;;5.70;5.20;;;;;;;10.72;68.13;98876.94;5056163;28;40931;-78
2023/05/02 01:50:15;;;;;;;5.27;4.77;;;;;;;10.75;68.62;98884.69;5056043;28;42879;-77
2023/05/02 01:52:45;;;;;;;5.63;4.90;;;;;;;10.79;68.78;98888.84;5056025;28;41189;-78
2023/05/02 01:55:15;;;;;;;6.33;4.97;;;;;;;10.84;68.58;98894.72;5056110;28;39296;-78
2023/05/02 01:57:45;;;;;;;5.30;4.80;;;;;;;10.89;69.09;98889.94;5072365;28;41595;-78
2023/05/02 02:00:17;;;;;;;5.07;4.60;;;;;;;10.95;68.65;98900.19;5073063;28;42544;-77
2023/05/02 02:02:47;;;;;;;5.83;4.93;;;;;;;10.89;68.37;98878.50;5056172;28;42280;-78
2023/05/02 02:05:17;;;;;;;6.47;5.97;;;;;;;10.98;68.85;98894.69;5072802;28;41885;-77
2023/05/02 02:07:45;;;;;;;6.23;5.53;;;;;;;11.04;69.12;98910.19;5072502;28;42683;-78
2023/05/02 02:10:13;;;;;;;6.00;5.40;;;;;;;10.98;69.20;98893.84;5055907;28;41578;-77
2023/05/02 02:12:43;;;;;;;6.20;5.60;;;;;;;11.06;68.87;98905.66;5055018;28;41487;-78
2023/05/02 02:15:20;;;;;;;7.17;6.47;;;;;;;11.14;69.32;98905.16;5072710;28;39869;-78
2023/05/02 02:17:55;;;;;;;6.17;5.30;;;;;;;11.18;69.28;98911.09;5055829;28;41225;-78
2023/05/02 02:20:22;;;;;;;6.10;5.50;;;;;;;11.10;68.78;98899.22;5055903;28;42667;-78
2023/05/02 02:22:51;;;;;;;5.40;4.90;;;;;;;11.27;68.65;98921.13;5072192;28;43412;-78
2023/05/02 02:25:19;;;;;;;5.50;5.00;;;;;;;11.28;68.43;98917.50;5072355;28;41863;-78
2023/05/02 02:27:48;;;;;;;6.27;5.67;;;;;;;11.31;68.34;98923.47;5055372;28;40838;-77
2023/05/02 02:30:16;;;;;;;5.83;5.33;;;;;;;11.37;68.34;98930.22;5055474;28;42737;-79
2023/05/02 02:32:45;;;;;;;6.13;5.53;;;;;;;11.41;68.21;98934.34;5055528;28;41306;-77
2023/05/02 02:35:13;;;;;;;5.63;4.70;;;;;;;11.44;68.21;98935.00;5055693;28;40087;-78
2023/05/02 02:37:45;;;;;;;5.80;5.07;;;;;;;11.48;67.90;98946.28;5072246;28;41923;-78
2023/05/02 02:40:21;;;;;;;5.90;5.20;;;;;;;11.50;68.43;98947.00;5055318;28;42705;-78
2023/05/02 02:42:56;;;;;;;6.13;5.43;;;;;;;11.55;68.25;98944.91;5072229;28;42112;-78
2023/05/02 02:45:34;;;;;;;6.53;5.37;;;;;;;11.57;68.32;98945.66;5055559;28;39156;-78
2023/05/02 02:48:17;;;;;;;6.03;5.47;;;;;;;11.61;67.95;98951.63;5070001;28;41956;-79
2023/05/02 02:50:59;;;;;;;5.47;4.97;;;;;;;11.53;68.20;98936.19;5055758;28;41851;-78
2023/05/02 02:53:34;;;;;;;5.63;5.03;;;;;;;11.67;68.41;98951.22;5055478;28;41470;-78
2023/05/02 02:56:06;;;;;;;5.73;5.23;;;;;;;11.69;68.48;98955.47;5071766;28;40995;-79
2023/05/02 02:58:46;;;;;;;6.47;5.87;;;;;;;11.71;68.65;98964.19;5075599;28;40740;-78
2023/05/02 03:01:18;;;;;;;5.40;4.90;;;;;;;11.73;68.86;98967.59;5075456;28;41810;-78
2023/05/02 03:03:49;;;;;;;5.10;4.70;;;;;;;11.76;68.60;98969.22;5058624;28;41106;-78
2023/05/02 03:06:17;;;;;;;4.80;4.40;;;;;;;11.78;68.54;98970.81;5075917;28;39779;-79
2023/05/02 03:08:45;;;;;;;4.63;4.23;;;;;;;11.82;68.07;98967.03;5075368;28;41711;-78
2023/05/02 03:11:18;;;;;;;4.93;4.37;;;;;;;11.84;68.10;98978.38;5072225;28;42800;-78
2023/05/02 03:13:46;;;;;;;4.43;4.03;;;;;;;11.87;67.56;98977.31;5074943;28;42422;-77
2023/05/02 03:16:33;;;;;;;5.60;4.50;;;;;;;11.90;67.64;98979.78;5058298;28;41073;-79
2023/05/02 03:19:04;;;;;;;4.60;3.90;;;;;;;11.93;67.54;98986.69;5074511;28;42569;-79
2023/05/02 03:21:32;;;;;;;4.47;4.07;;;;;;;11.92;67.47;98982.31;5058227;28;41689;-78
2023/05/02 03:24:06;;;;;;;5.07;4.23;;;;;;;11.98;67.48;98992.56;5058248;28;41571;-78
2023/05/02 03:26:34;;;;;;;4.50;4.10;;;;;;;11.98;67.48;98988.09;5075365;28;40998;-78
2023/05/02 03:29:02;;;;;;;5.00;4.53;;;;;;;11.89;67.32;98972.75;5058142;28;42123;-78
2023/05/02 03:31:35;;;;;;;3.77;3.47;;;;;;;12.02;67.38;98992.22;5058076;28;41561;-78
2023/05/02 03:34:04;;;;;;;6.27;4.23;;;;;;;12.05;67.80;98996.50;5057999;28;41460;-78
2023/05/02 03:36:32;;;;;;;4.40;4.00;;;;;;;12.06;67.74;98990.22;5058037;28;39236;-78
2023/05/02 03:39:00;;;;;;;4.40;4.00;;;;;;;12.10;67.36;98994.41;5058085;28;42102;-77
2023/05/02 03:41:28;;;;;;;3.93;3.53;;;;;;;12.13;67.66;98996.81;5058085;28;43071;-77
2023/05/02 03:44:02;;;;;;;3.67;3.37;;;;;;;12.17;67.20;98999.19;5073860;28;42627;-78
2023/05/02 03:46:30;;;;;;;3.93;3.63;;;;;;;12.18;67.64;99000.03;5057947;28;38938;-78
2023/05/02 03:48:58;;;;;;;5.80;4.90;;;;;;;12.14;68.11;98987.91;5057728;28;41191;-78
2023/05/02 03:51:28;;;;;;;4.00;3.67;;;;;;;12.22;67.86;98998.88;5057728;28;41672;-78
2023/05/02 03:53:58;;;;;;;4.37;3.97;;;;;;;12.16;67.76;98984.19;5057804;28;42545;-78
2023/05/02 03:56:26;;;;;;;4.63;4.23;;;;;;;12.30;67.26;99006.31;5057887;28;38973;-79
2023/05/02 03:59:09;;;;;;;4.57;3.67;;;;;;;12.34;67.40;99010.50;5074260;28;42532;-78
2023/05/02 04:01:37;;;;;;;4.30;3.97;;;;;;;12.35;67.05;99006.88;5057387;28;41761;-79
2023/05/02 04:04:06;;;;;;;4.40;4.00;;;;;;;12.28;67.13;99001.13;5057345;28;41214;-79
2023/05/02 04:06:39;;;;;;;4.23;3.93;;;;;;;12.39;67.11;99014.53;5071274;28;40988;-78
2023/05/02 04:09:09;;;;;;;4.40;4.00;;;;;;;12.41;66.91;99020.59;5073945;28;41830;-79
2023/05/02 04:11:43;;;;;;;4.67;3.47;;;;;;;12.43;66.63;99017.84;5057915;28;41632;-80
2023/05/02 04:14:13;;;;;;;3.57;3.27;;;;;;;12.43;66.58;99021.34;5057254;28;42646;-79
2023/05/02 04:16:42;;;;;;;3.90;3.53;;;;;;;12.35;66.60;99009.53;5057041;28;38904;-79
2023/05/02 04:19:10;;;;;;;3.50;3.20;;;;;;;12.45;66.43;99019.44;5057280;28;41112;-79
2023/05/02 04:21:41;;;;;;;5.53;4.13;;;;;;;12.47;66.79;99030.81;5057374;28;41702;-79
2023/05/02 04:24:09;;;;;;;3.80;3.50;;;;;;;12.48;66.58;99034.31;5074105;28;42071;-78
2023/05/02 04:26:38;;;;;;;4.03;3.73;;;;;;;12.51;66.21;99039.41;5057644;28;38925;-79
2023/05/02 04:29:09;;;;;;;3.97;3.67;;;;;;;12.53;66.59;99050.78;5073688;28;41672;-79
2023/05/02 04:31:37;;;;;;;4.37;3.97;;;;;;;12.55;66.29;99051.53;5057438;28;41828;-77
2023/05/02 04:34:06;;;;;;;4.67;4.27;;;;;;;12.56;66.63;99054.09;5057267;28;41744;-77
2023/05/02 04:36:39;;;;;;;4.90;4.50;;;;;;;12.51;66.87;99039.41;5057575;28;39123;-78
2023/05/02 04:39:10;;;;;;;5.40;4.93;;;;;;;12.65;66.85;99059.72;5056960;28;40496;-79
2023/05/02 04:41:41;;;;;;;5.03;4.53;;;;;;;12.70;66.75;99068.25;5074295;28;43314;-79
2023/05/02 04:44:10;;;;;;;4.67;4.27;;;;;;;12.77;66.53;99072.19;5056860;28;41151;-80
2023/05/02 04:46:39;;;;;;;5.33;4.63;;;;;;;12.82;67.00;99080.72;5057265;28;40277;-77
2023/05/02 04:49:06;;;;;;;5.13;4.37;;;;;;;12.80;66.65;99066.66;5056976;28;41093;-78
2023/05/02 04:51:34;;;;;;;4.60;4.20;;;;;;;12.96;66.33;99088.59;5074093;28;41738;-79
2023/05/02 04:54:12;;;;;;;4.77;4.27;;;;;;;13.00;66.46;99084.75;5056499;28;42480;-80
2023/05/02 04:56:42;;;;;;;4.57;4.17;;;;;;;13.08;66.44;99094.88;5057440;28;39972;-79
2023/05/02 04:59:10;;;;;;;5.60;4.80;;;;;;;13.04;66.47;99094.22;5056784;28;41880;-78
2023/05/02 05:01:38;;;;;;;6.23;5.00;;;;;;;13.16;66.32;99112.03;5056792;28;41502;-79
2023/05/02 05:04:08;;;;;;;4.57;4.17;;;;;;;13.23;66.00;99115.09;5073408;28;42565;-78
2023/05/02 05:06:35;;;;;;;4.20;3.90;;;;;;;13.27;65.52;99122.78;5057143;28;38319;-79
2023/05/02 05:09:03;;;;;;;3.93;3.57;;;;;;;13.35;65.34;99132.06;5056943;28;41555;-79
2023/05/02 05:11:31;;;;;;;4.20;3.80;;;;;;;13.41;65.46;99132.47;5056879;28;41735;-79
2023/05/02 05:14:02;;;;;;;4.67;4.27;;;;;;;13.47;65.11;99141.84;5056723;28;41324;-79
2023/05/02 05:16:31;;;;;;;6.33;4.60;;;;;;;13.53;65.27;99138.72;5056443;28;38830;-78
2023/05/02 05:18:59;;;;;;;5.17;3.90;;;;;;;13.56;65.04;99141.19;5055645;28;40267;-79
2023/05/02 05:21:27;;;;;;;4.33;3.93;;;;;;;13.60;64.93;99151.50;5073688;28;43875;-76
2023/05/02 05:23:55;;;;;;;4.53;4.13;;;;;;;13.63;64.75;99145.97;5073286;28;42723;-80
2023/05/02 05:26:26;;;;;;;5.67;4.60;;;;;;;13.59;65.05;99140.97;5056669;28;40347;-78
2023/05/02 05:28:55;;;;;;;4.87;4.00;;;;;;;13.65;64.85;99153.84;5056698;28;40796;-80
2023/05/02 05:31:26;;;;;;;4.50;4.10;;;;;;;13.70;65.08;99154.38;5056546;28;43256;-80
2023/05/02 05:33:57;;;;;;;4.00;3.70;;;;;;;13.73;64.92;99153.28;5072606;28;42921;-80
2023/05/02 05:36:27;;;;;;;4.73;4.33;;;;;;;13.72;64.81;99152.47;5056746;28;39176;-80
2023/05/02 05:38:54;;;;;;;4.23;3.83;;;;;;;13.73;65.08;99156.81;5072890;28;41354;-80
2023/05/02 05:41:23;;;;;;;4.53;4.13;;;;;;;13.74;64.91;99160.31;5073358;28;42767;-77
2023/05/02 05:43:56;;;;;;;4.40;4.00;;;;;;;13.72;64.59;99162.25;5071914;28;42378;-78
2023/05/02 05:46:28;;;;;;;4.37;3.97;;;;;;;13.81;65.00;99173.09;5056539;28;40448;-81
2023/05/02 05:48:56;;;;;;;4.70;4.30;;;;;;;13.86;64.72;99176.28;5056322;28;40436;-77
2023/05/02 05:51:26;;;;;;;4.50;4.10;;;;;;;13.91;64.83;99174.16;5056117;28;41239;-78
2023/05/02 05:53:54;;;;;;;4.23;3.87;;;;;;;13.99;64.90;99179.75;5073276;28;42176;-79
2023/05/02 05:56:22;;;;;;;5.83;5.00;;;;;;;14.09;64.41;99179.13;5056569;28;40174;-79
2023/05/02 05:58:57;;;;;;;4.23;3.83;;;;;;;14.15;64.50;99176.88;5072196;28;42365;-79
2023/05/02 06:01:25;;;;;;;5.63;5.07;;;;;;;14.22;64.44;99182.59;5055759;28;42894;-80
2023/05/02 06:03:55;;;;;;;5.87;5.37;;;;;;;14.22;64.16;99175.44;5055669;28;42538;-80
2023/05/02 06:06:22;;;;;;;5.70;5.17;;;;;;;14.12;63.82;99160.25;5056329;28;40027;-80
2023/05/02 06:08:50;;;;;;;4.93;4.43;;;;;;;14.31;63.91;99187.28;5072482;28;42766;-80
2023/05/02 06:11:18;;;;;;;5.47;4.93;;;;;;;14.36;63.80;99193.09;5056071;28;41665;-78
2023/05/02 06:13:46;;;;;;;6.20;5.60;;;;;;;14.54;63.61;99205.13;5055362;28;41262;-81
2023/05/02 06:16:14;;;;;;;5.10;4.70;;;;;;;14.59;63.37;99202.97;5055566;28;39120;-80
2023/05/02 06:18:42;;;;;;;5.40;4.90;;;;;;;14.74;63.36;99209.84;5072586;28;42552;-79
2023/05/02 06:21:11;;;;;;;4.93;4.47;;;;;;;14.83;62.78;99212.81;5072894;28;42767;-80
2023/05/02 06:23:39;;;;;;;6.77;6.13;;;;;;;14.86;63.25;99212.56;5072563;28;43166;-82
2023/05/02 06:26:08;;;;;;;6.10;5.30;;;;;;;14.86;63.21;99220.56;5056359;28;39107;-81
2023/05/02 06:28:36;;;;;;;5.23;4.83;;;;;;;14.91;63.07;99229.09;5072908;28;42825;-80
2023/05/02 06:31:05;;;;;;;6.10;5.60;;;;;;;14.96;63.29;99226.94;5059282;28;41963;-81
2023/05/02 06:33:34;;;;;;;5.37;4.90;;;;;;;15.04;63.19;99220.06;5093476;28;43255;-80
2023/05/02 06:36:01;;;;;;;5.77;5.27;;;;;;;15.25;62.89;99236.25;5076105;28;40745;-79
2023/05/02 06:38:31;;;;;;;7.03;5.90;;;;;;;15.40;63.02;99240.44;5058725;28;40769;-80
2023/05/02 06:40:58;;;;;;;6.50;5.77;;;;;;;15.51;62.71;99242.28;5076271;28;43545;-81
2023/05/02 06:43:26;;;;;;;6.53;5.93;;;;;;;15.69;62.70;99240.06;5058992;28;42596;-81
2023/05/02 06:45:55;;;;;;;6.57;5.97;;;;;;;15.78;61.83;99261.56;5075756;28;38679;-79
2023/05/02 06:48:22;;;;;;;7.07;6.37;;;;;;;15.90;61.84;99254.41;5059087;28;41038;-80
2023/05/02 06:50:53;;;;;;;6.23;5.63;;;;;;;15.99;61.46;99251.00;5075985;28;41864;-80
2023/05/02 06:53:20;;;;;;;7.40;6.27;;;;;;;16.10;60.97;99256.34;5076178;28;42238;-79
2023/05/02 06:55:50;;;;;;;7.13;6.43;;;;;;;16.28;60.79;99262.09;5094027;28;40811;-78
2023/05/02 06:58:17;;;;;;;7.77;7.00;;;;;;;16.45;60.64;99268.72;5058260;28;41760;-81
2023/05/02 07:00:45;;;;;;;9.63;7.03;;;;;;;16.64;60.11;99269.00;5058774;28;42796;-78
2023/05/02 07:03:12;;;;;;;7.27;6.57;;;;;;;16.84;59.61;99259.34;5075277;28;41309;-81
2023/05/02 07:05:40;;;;;;;7.93;7.17;;;;;;;17.15;58.56;99279.09;5094047;28;40053;-79
2023/05/02 07:08:09;;;;;;;7.47;6.73;;;;;;;17.41;58.18;99280.47;5075495;28;42472;-78
2023/05/02 07:10:36;;;;;;;7.30;6.13;;;;;;;17.64;57.24;99297.28;5075476;28;42924;-79
2023/05/02 07:13:05;;;;;;;7.67;6.97;;;;;;;17.76;56.40;99284.69;5075813;28;41158;-78
2023/05/02 07:15:33;;;;;;;7.77;6.97;;;;;;;18.13;55.36;99303.81;5075034;28;40265;-80
2023/05/02 07:18:00;;;;;;;7.10;6.53;;;;;;;18.35;55.03;99305.47;5091612;28;41895;-81
2023/05/02 07:20:28;;;;;;;7.60;6.80;;;;;;;18.65;54.29;99316.25;5075516;28;42748;-80
2023/05/02 07:22:56;;;;;;;9.47;8.00;;;;;;;19.00;53.98;99313.94;5092933;28;42697;-81
2023/05/02 07:25:23;;;;;;;8.57;7.70;;;;;;;19.25;53.22;99315.25;5075328;28;40122;-80
2023/05/02 07:27:51;;;;;;;7.23;6.53;;;;;;;19.57;52.02;99327.59;5058231;28;40422;-79
2023/05/02 07:30:20;;;;;;;7.20;6.50;;;;;;;19.78;51.78;99316.72;5075332;28;42803;-79
2023/05/02 07:32:47;;;;;;;7.97;6.27;;;;;;;19.88;51.54;99317.56;5057934;28;42457;-80
2023/05/02 07:35:15;;;;;;;6.73;6.13;;;;;;;19.91;51.47;99317.25;5075567;28;40018;-80
2023/05/02 07:37:43;;;;;;;7.40;6.70;;;;;;;19.93;50.80;99321.50;5057812;28;40369;-80
2023/05/02 07:40:11;;;;;;;8.93;7.17;;;;;;;19.87;49.91;99311.31;5057497;28;42014;-80
2023/05/02 07:42:39;;;;;;;8.93;7.30;;;;;;;20.15;49.30;99341.84;5057614;28;41416;-79
2023/05/02 07:45:08;;;;;;;10.10;7.60;;;;;;;20.50;49.66;99335.00;5058317;28;38919;-80
2023/05/02 07:47:37;;;;;;;7.73;7.00;;;;;;;21.16;48.72;99333.78;5057733;28;42575;-81
2023/05/02 07:50:05;;;;;;;6.47;5.80;;;;;;;21.56;47.86;99332.56;5058154;28;41568;-79
2023/05/02 07:52:33;;;;;;;9.37;7.03;;;;;;;22.10;46.79;99352.28;5092976;28;43015;-80
2023/05/02 07:55:01;;;;;;;6.47;5.77;;;;;;;22.19;45.66;99327.88;5074933;28;39877;-80
2023/05/02 07:57:28;;;;;;;6.57;5.97;;;;;;;22.62;44.27;99372.03;5074959;28;42688;-81
2023/05/02 07:59:56;;;;;;;6.90;5.67;;;;;;;22.47;44.63;99352.88;5092889;28;43928;-80
2023/05/02 08:02:24;;;;;;;7.43;6.83;;;;;;;22.37;44.34;99379.13;5057735;28;42319;-79
2023/05/02 08:04:54;;;;;;;8.17;6.53;;;;;;;22.16;44.56;99371.38;5074831;28;42197;-82
2023/05/02 08:07:21;;;;;;;6.87;5.73;;;;;;;21.90;44.92;99365.03;5057679;28;41825;-79
2023/05/02 08:09:49;;;;;;;6.13;5.50;;;;;;;21.73;45.63;99353.28;5075011;28;42932;-79
2023/05/02 08:12:16;;;;;;;6.53;5.57;;;;;;;21.62;45.88;99345.44;5092662;28;43127;-80
2023/05/02 08:14:43;;;;;;;7.90;7.13;;;;;;;21.71;46.13;99363.38;5092849;28;42437;-80
2023/05/02 08:17:12;;;;;;;6.23;5.63;;;;;;;21.79;45.51;99368.81;5057401;28;41838;-81
2023/05/02 08:19:39;;;;;;;6.80;6.20;;;;;;;22.21;44.50;99373.59;5074458;28;42502;-81
2023/05/02 08:22:08;;;;;;;6.37;5.37;;;;;;;22.50;44.99;99363.31;5092636;28;43268;-79
2023/05/02 08:24:36;;;;;;;7.10;6.40;;;;;;;22.81;43.63;99370.97;5073979;28;40060;-80
2023/05/02 08:27:03;;;;;;;6.47;5.70;;;;;;;23.46;42.68;99377.47;5057614;28;41049;-82
2023/05/02 08:29:31;;;;;;;6.77;6.23;;;;;;;24.50;40.89;99398.56;5074385;28;42724;-81
2023/05/02 08:31:59;;;;;;;6.50;5.33;;;;;;;25.37;39.84;99409.31;5074529;28;43179;-80
2023/05/02 08:34:26;;;;;;;6.77;6.17;;;;;;;26.42;38.10;99404.25;5074343;28;40794;-82
2023/05/02 08:36:54;;;;;;;6.97;5.83;;;;;;;27.63;36.59;99422.97;5073918;28;41914;-80
2023/05/02 08:39:23;;;;;;;6.50;5.90;;;;;;;28.15;36.06;99419.97;5073779;28;42156;-81
2023/05/02 08:41:50;;;;;;;7.03;5.83;;;;;;;28.37;33.93;99429.00;5057342;28;41080;-81
2023/05/02 08:44:18;;;;;;;5.47;4.90;;;;;;;29.09;33.92;99431.44;5057037;28;39287;-80
2023/05/02 08:46:46;;;;;;;5.93;5.33;;;;;;;29.70;31.60;99451.50;5074252;28;42667;-82
2023/05/02 08:49:16;;;;;;;5.40;4.90;;;;;;;30.26;30.26;99454.84;5074005;28;42796;-80
2023/05/02 08:51:45;;;;;;;5.83;4.50;;;;;;;30.85;29.63;99458.69;5057233;28;41127;-81
2023/05/02 08:54:17;;;;;;;5.10;4.60;;;;;;;30.89;29.62;99447.13;5056962;28;38859;-81
2023/05/02 08:56:46;;;;;;;4.80;4.40;;;;;;;30.96;30.91;99450.66;5074442;28;40622;-82
2023/05/02 08:59:14;;;;;;;6.80;4.80;;;;;;;30.80;30.04;99451.09;5073865;28;42999;-80
2023/05/02 09:01:44;;;;;;;5.23;4.73;;;;;;;30.78;30.04;99464.19;5074011;28;42434;-79
2023/05/02 09:04:13;;;;;;;6.00;5.40;;;;;;;31.13;29.18;99466.69;5056810;28;39443;-83
2023/05/02 09:06:41;;;;;;;5.87;5.30;;;;;;;30.39;29.21;99436.78;5074133;28;41664;-81
2023/05/02 09:09:08;;;;;;;5.73;5.23;;;;;;;30.03;30.63;99448.09;5073587;28;43062;-83
2023/05/02 09:11:37;;;;;;;6.00;3.97;;;;;;;29.15;31.23;99464.25;5091916;28;43206;-80
2023/05/02 09:14:15;;;;;;;4.50;4.10;;;;;;;28.40;32.41;99444.97;5056547;28;38988;-81
2023/05/02 09:16:43;;;;;;;5.87;5.37;;;;;;;28.14;32.50;99454.53;5056905;28;42011;-79
2023/05/02 09:19:11;;;;;;;5.37;4.97;;;;;;;27.60;32.79;99447.84;5073106;28;42679;-82
2023/05/02 09:21:40;;;;;;;6.77;5.67;;;;;;;26.99;33.29;99455.34;5092356;28;20226;-80
2023/05/02 09:24:16;;;;;;;5.20;4.70;;;;;;;26.26;34.29;99436.94;5073260;28;40822;-82
2023/05/02 09:26:57;;;;;;;4.40;4.00;;;;;;;25.89;35.30;99430.44;5056696;28;40707;-80
2023/05/02 09:29:27;;;;;;;5.60;4.30;;;;;;;26.86;34.75;99445.06;5056861;28;41756;-82
2023/05/02 09:31:55;;;;;;;5.00;4.60;;;;;;;28.26;32.57;99460.34;5073310;28;42747;-81
2023/05/02 09:34:22;;;;;;;5.67;5.20;;;;;;;29.11;31.07;99470.28;5056000;28;40460;-81
2023/05/02 09:36:52;;;;;;;5.13;4.30;;;;;;;28.63;31.08;99456.47;5073354;28;40869;-83
2023/05/02 09:39:22;;;;;;;4.33;3.90;;;;;;;28.21;32.04;99470.97;5056159;28;44225;-81
2023/05/02 09:41:50;;;;;;;4.47;4.07;;;;;;;27.69;31.94;99468.47;5056335;28;40583;-83
2023/05/02 09:44:18;;;;;;;5.33;4.37;;;;;;;27.32;32.07;99467.56;5072865;28;40177;-83
2023/05/02 09:46:49;;;;;;;5.93;5.43;;;;;;;27.15;32.19;99472.31;5091298;28;41674;-83
2023/05/02 09:49:18;;;;;;;5.03;4.63;;;;;;;27.97;32.11;99472.16;5073189;28;43407;-84
2023/05/02 09:51:48;;;;;;;4.47;4.00;;;;;;;28.32;31.71;99475.06;5056080;28;42566;-83
2023/05/02 09:54:35;;;;;;;5.80;5.30;;;;;;;28.49;29.56;99476.47;5056142;28;40015;-82
2023/05/02 09:57:02;;;;;;;4.20;3.77;;;;;;;28.91;30.51;99467.44;5070080;28;43207;-84
2023/05/02 09:59:30;;;;;;;4.30;4.00;;;;;;;29.49;30.86;99470.75;5055954;28;42895;-83
2023/05/02 10:02:02;;;;;;;3.67;3.37;;;;;;;29.68;30.44;99472.72;5073154;28;42347;-82
2023/05/02 10:04:32;;;;;;;5.23;3.80;;;;;;;29.37;29.81;99484.09;5057707;28;39297;-83
2023/05/02 10:07:02;;;;;;;4.00;3.60;;;;;;;28.87;30.70;99477.88;5076876;28;41510;-82
2023/05/02 10:09:31;;;;;;;3.97;3.60;;;;;;;28.33;31.46;99472.13;5059388;28;41738;-81
2023/05/02 10:12:03;;;;;;;5.37;4.87;;;;;;;27.67;30.85;99481.44;5076700;28;42358;-82
2023/05/02 10:14:34;;;;;;;4.27;3.87;;;;;;;27.10;31.98;99484.78;5059971;28;39351;-80
2023/05/02 10:17:09;;;;;;;5.63;4.57;;;;;;;26.55;33.10;99450.66;5075181;28;41670;-80
2023/05/02 10:19:44;;;;;;;5.87;5.20;;;;;;;26.29;33.76;99474.63;5076563;28;42829;-80
2023/05/02 10:22:13;;;;;;;5.97;4.93;;;;;;;26.43;34.55;99471.13;5076246;28;41000;-80
2023/05/02 10:24:41;;;;;;;5.40;4.77;;;;;;;26.50;34.45;99469.38;5076053;28;40743;-79
2023/05/02 10:27:09;;;;;;;5.33;4.27;;;;;;;26.25;33.78;99470.56;5094103;28;41781;-79
2023/05/02 10:29:39;;;;;;;4.20;3.80;;;;;;;25.88;34.35;99466.72;5075959;28;41937;-82
2023/05/02 10:32:09;;;;;;;5.60;5.00;;;;;;;25.39;34.52;99466.94;5076178;28;43238;-81
2023/05/02 10:34:38;;;;;;;6.07;4.97;;;;;;;25.23;34.68;99472.41;5094098;28;40248;-78
2023/05/02 10:37:06;;;;;;;4.80;4.40;;;;;;;25.19;36.07;99464.81;5076051;28;41814;-79
2023/05/02 10:39:34;;;;;;;6.33;5.73;;;;;;;25.90;37.62;99453.84;5059343;28;42981;-81
2023/05/02 10:42:04;;;;;;;6.13;5.20;;;;;;;26.53;36.97;99455.41;5058840;28;42335;-82
2023/05/02 10:44:35;;;;;;;5.43;5.03;;;;;;;27.13;35.09;99460.78;5059021;28;40163;-82
2023/05/02 10:47:18;;;;;;;5.27;4.77;;;;;;;27.24;34.18;99466.78;5076338;28;40994;-84
2023/05/02 10:49:51;;;;;;;5.57;5.07;;;;;;;27.23;33.94;99474.09;5059400;28;42917;-82
2023/05/02 10:52:30;;;;;;;4.20;3.80;;;;;;;27.32;34.70;99467.56;5058679;28;42556;-81
2023/05/02 10:55:17;;;;;;;5.47;4.57;;;;;;;28.41;34.25;99476.63;5093871;28;39922;-82
2023/05/02 10:58:20;;;;;;;4.50;4.10;;;;;;;29.55;30.65;99489.88;5073140;28;41875;-84
2023/05/02 11:00:48;;;;;;;4.50;4.20;;;;;;;30.40;31.71;99474.00;5071910;28;42711;-82
2023/05/02 11:03:56;;;;;;;4.33;4.03;;;;;;;31.26;29.77;99491.28;5075529;28;41867;-80
2023/05/02 11:06:24;;;;;;;4.87;4.47;;;;;;;32.27;27.93;99497.84;5058679;28;40368;-83
2023/05/02 11:08:52;;;;;;;3.80;3.53;;;;;;;33.69;26.85;99502.56;5074750;28;41790;-82
2023/05/02 11:11:39;;;;;;;3.90;3.60;;;;;;;35.90;24.80;99504.94;5075468;28;43206;-80
2023/05/02 11:14:08;;;;;;;4.45;4.05;;;;;;;37.26;22.74;99527.88;5058420;28;41127;-81
2023/05/02 11:17:05;;;;;;;4.18;3.88;;;;;;;37.91;21.56;99521.63;5074045;28;41005;-80
2023/05/02 11:20:07;;;;;;;4.57;3.80;;;;;;;38.83;20.76;99530.94;5093233;28;41651;-81
2023/05/02 11:22:36;;;;;;;3.90;3.60;;;;;;;38.80;21.04;99524.84;5092884;28;42721;-80
2023/05/02 11:25:05;;;;;;;3.58;3.28;;;;;;;37.93;21.91;99511.16;5075179;28;42134;-83
2023/05/02 11:27:40;;;;;;;3.30;2.97;;;;;;;37.94;21.19;99518.34;5058209;28;39036;-82
2023/05/02 11:30:08;;;;;;;3.08;2.83;;;;;;;37.60;21.39;99514.81;5072995;28;41892;-81
2023/05/02 11:33:18;;;;;;;3.50;3.20;;;;;;;36.94;21.03;99513.81;5075527;28;43488;-79
2023/05/02 11:35:48;;;;;;;4.00;3.37;;;;;;;36.12;21.25;99518.03;5058976;28;41161;-82
2023/05/02 11:38:20;;;;;;;3.83;3.53;;;;;;;35.78;23.74;99487.59;5075340;28;40964;-79
2023/05/02 11:40:53;;;;;;;5.00;4.38;;;;;;;35.79;22.19;99486.53;5072262;28;42513;-82
2023/05/02 11:43:21;;;;;;;2.85;2.65;;;;;;;36.13;23.64;99494.91;5057824;28;41946;-81
2023/05/02 11:45:49;;;;;;;3.53;3.22;;;;;;;36.22;22.48;99499.00;5075033;28;43171;-81
2023/05/02 11:48:19;;;;;;;3.53;3.22;;;;;;;36.47;22.13;99490.34;5058048;28;39028;-82
2023/05/02 11:50:48;;;;;;;4.10;3.33;;;;;;;35.60;22.94;99488.59;5075001;28;42588;-79